Jack Guidry — WDF2422 — position and weather

sailwx.info

Track history (hours):
 
Tides and Currents Weather Stations Pressure Air Temp Water Temp Dewpoint Dewpoint Depression Visibility Wind Speed Wind Dir Waves Ship Positions

Jack Guidry

Owner: Enterprise Marine Services, LLC, San Antonio, TX. More information available from US FCC via Universal Licensing System and Coast Guard Vessel Documentation Center.

Last reported at 2017-Aug-23 18:29 UTC. Time now 2017-Aug-24 05:04 UTC.
Position N 29°49' W 092°17'.

Length 22 m; draft 3 m.

Type: Other ship. MMSI: 367003430.

Date/timePositionNaut miles runAvg speedWind from/ knotsBaromVisibWave heightAir tempDewpointWater temp
2017-Aug-23 18:29N 29°49' W 092°17'1 1.6
2017-Aug-23 18:01N 29°49' W 092°16'1 1.4
2017-Aug-23 17:31N 29°48' W 092°15'2 3.9
2017-Aug-23 17:01N 29°47' W 092°13'1 1.7
2017-Aug-23 16:31N 29°47' W 092°12'1 1.9
2017-Aug-23 16:01N 29°47' W 092°11'0 0.9
2017-Aug-23 15:31N 29°47' W 092°11'0 0.1
2017-Aug-23 15:01N 29°47' W 092°11'3 3.0
2017-Aug-23 14:01N 29°47' W 092°07'2 3.9
2017-Aug-23 13:31N 29°48' W 092°05'69 3.5
2017-Aug-22 17:55N 29°32' W 090°48'2 4.3
2017-Aug-22 17:31N 29°32' W 090°46'2 3.5
2017-Aug-22 17:01N 29°34' W 090°45'2 3.7
2017-Aug-22 16:31N 29°35' W 090°43'1 2.2
2017-Aug-22 16:01N 29°36' W 090°43'1 2.7
2017-Aug-22 15:30N 29°37' W 090°42'0 0.8
2017-Aug-22 15:00N 29°37' W 090°42'0 0.0
2017-Aug-22 14:31N 29°37' W 090°42'1 2.4
2017-Aug-22 14:00N 29°36' W 090°41'0 0.1
2017-Aug-22 13:30N 29°36' W 090°40'0 0.0
2017-Aug-22 13:00N 29°36' W 090°40'0 0.0
2017-Aug-22 12:30N 29°36' W 090°40'0 0.5
2017-Aug-22 12:00N 29°36' W 090°40'2 3.8
2017-Aug-22 11:30N 29°35' W 090°38'1 2.7
2017-Aug-22 11:00N 29°35' W 090°37'2 4.1
2017-Aug-22 10:29N 29°34' W 090°34'2 4.1
2017-Aug-22 09:58N 29°34' W 090°32'2 4.2
2017-Aug-22 09:28N 29°34' W 090°30'  
2017-Aug-17 05:44N 29°34' W 090°29'1 4.9
2017-Aug-17 05:27N 29°34' W 090°31'2 4.6
2017-Aug-17 05:00N 29°34' W 090°33'2 3.7
2017-Aug-17 04:25N 29°35' W 090°35'2 4.1
2017-Aug-17 04:01N 29°35' W 090°37'1 1.3
2017-Aug-17 03:31N 29°35' W 090°38'1 1.8
2017-Aug-17 02:54N 29°36' W 090°39'2 3.8
2017-Aug-17 02:30N 29°36' W 090°41'2 3.5
2017-Aug-17 02:01N 29°36' W 090°43'2 3.8
2017-Aug-17 01:31N 29°35' W 090°43'1 2.3
2017-Aug-17 01:01N 29°34' W 090°43'0 0.0
2017-Aug-17 00:31N 29°34' W 090°43'0 0.2
2017-Aug-17 00:01N 29°34' W 090°43'0 0.1
2017-Aug-16 23:31N 29°34' W 090°43'0 0.2
2017-Aug-16 23:01N 29°34' W 090°43'0 0.1
2017-Aug-16 22:30N 29°34' W 090°43'0 0.1
2017-Aug-16 22:01N 29°34' W 090°43'0 0.1
2017-Aug-16 21:31N 29°34' W 090°43'0 0.0
2017-Aug-16 21:01N 29°34' W 090°43'0 0.0
2017-Aug-16 20:31N 29°34' W 090°43'0 0.1
2017-Aug-16 20:01N 29°34' W 090°43'0 0.3
2017-Aug-16 19:31N 29°34' W 090°43'0 0.2
2017-Aug-16 19:01N 29°34' W 090°43'0 0.0
2017-Aug-16 18:31N 29°34' W 090°43'0 0.0
2017-Aug-16 18:00N 29°34' W 090°43'0 0.0
2017-Aug-16 17:30N 29°34' W 090°43'0 0.0
2017-Aug-16 17:00N 29°34' W 090°43'0 0.0
2017-Aug-16 16:30N 29°34' W 090°43'0 0.0
2017-Aug-16 16:00N 29°34' W 090°43'0 0.0
2017-Aug-16 15:30N 29°34' W 090°43'0 0.0
2017-Aug-16 14:27N 29°34' W 090°43'0 0.0
2017-Aug-16 14:00N 29°34' W 090°43'0 0.0
2017-Aug-16 13:30N 29°34' W 090°43'0 0.0
2017-Aug-16 13:00N 29°34' W 090°43'0 0.0
2017-Aug-16 12:22N 29°34' W 090°43'0 0.0
2017-Aug-16 12:00N 29°34' W 090°43'0 0.0
2017-Aug-16 11:30N 29°34' W 090°43'0 0.0
2017-Aug-16 11:00N 29°34' W 090°43'0 0.0
2017-Aug-16 10:30N 29°34' W 090°43'0 0.1
2017-Aug-16 10:00N 29°34' W 090°43'0 0.1
2017-Aug-16 09:30N 29°34' W 090°43'0 0.3
2017-Aug-16 09:00N 29°34' W 090°43'0 0.2
2017-Aug-16 08:30N 29°34' W 090°43'0 0.6
2017-Aug-16 08:00N 29°33' W 090°43'1 2.2
2017-Aug-16 07:30N 29°34' W 090°44'2 3.6
2017-Aug-16 07:00N 29°33' W 090°45'0 0.0
2017-Aug-16 06:30N 29°33' W 090°45'0 0.0
2017-Aug-16 06:00N 29°33' W 090°45'0 0.1
2017-Aug-16 05:30N 29°33' W 090°45'0 0.1
2017-Aug-16 05:00N 29°33' W 090°45'2 3.2
2017-Aug-16 04:30N 29°32' W 090°47'66 4.1
2017-Aug-15 12:27N 29°50' W 091°60'3 6.5
2017-Aug-15 12:00N 29°49' W 092°03'3 6.5
2017-Aug-15 11:30N 29°48' W 092°06'3 6.3
2017-Aug-15 11:00N 29°47' W 092°10'2 4.5
2017-Aug-15 10:30N 29°47' W 092°12'1 2.3
2017-Aug-15 10:00N 29°48' W 092°14'3 5.3
2017-Aug-15 09:23N 29°49' W 092°17'2 4.0
2017-Aug-15 09:00N 29°50' W 092°18'43 5.1
2017-Aug-15 00:42N 29°56' W 093°07'2 6.1
2017-Aug-15 00:19N 29°56' W 093°09'2 6.0
2017-Aug-15 00:00N 29°58' W 093°11'3 5.9
2017-Aug-14 23:30N 29°60' W 093°13'3 5.4
2017-Aug-14 23:00N 30°02' W 093°15'0 0.2
2017-Aug-14 22:30N 30°02' W 093°15'0 0.4
2017-Aug-14 22:00N 30°02' W 093°15'0 0.0
2017-Aug-14 21:30N 30°02' W 093°15'0 0.0
2017-Aug-14 21:00N 30°02' W 093°15'0 0.1
2017-Aug-14 20:30N 30°02' W 093°15'0 0.3
2017-Aug-14 20:00N 30°02' W 093°15'0 0.1
2017-Aug-14 19:30N 30°02' W 093°15'0 0.1
2017-Aug-14 19:00N 30°02' W 093°15'2 3.4
2017-Aug-14 18:30N 30°03' W 093°16'2 4.9
2017-Aug-14 18:00N 30°05' W 093°17'1 2.6
2017-Aug-14 17:30N 30°06' W 093°18'0 0.1
2017-Aug-14 17:00N 30°06' W 093°18'0 0.0
2017-Aug-14 16:30N 30°06' W 093°18'0 0.1
2017-Aug-14 16:00N 30°06' W 093°18'0 0.9
2017-Aug-14 15:30N 30°06' W 093°19'3 5.1
2017-Aug-14 15:00N 30°04' W 093°21'2 4.2
2017-Aug-14 14:30N 30°04' W 093°23'2 4.5
2017-Aug-14 14:00N 30°04' W 093°26'2 4.6
2017-Aug-14 13:30N 30°04' W 093°28'  
Track history (hours):
 
Tides and Currents Weather Stations Pressure Air Temp Water Temp Dewpoint Dewpoint Depression Visibility Wind Speed Wind Dir Waves Ship Positions

Jack Guidry

Owner: Enterprise Marine Services, LLC, San Antonio, TX. More information available from US FCC via Universal Licensing System and Coast Guard Vessel Documentation Center.

Last reported at 2017-Aug-23 18:29 UTC. Time now 2017-Aug-24 05:04 UTC.
Position N 29°49' W 092°17'.

Length 22 m; draft 3 m.

Type: Other ship. MMSI: 367003430.

Date/timePositionNaut miles runAvg speedWind from/ knotsBaromVisibWave heightAir tempDewpointWater temp
2017-Aug-23 18:29N 29°49' W 092°17'1 1.6
2017-Aug-23 18:01N 29°49' W 092°16'1 1.4
2017-Aug-23 17:31N 29°48' W 092°15'2 3.9
2017-Aug-23 17:01N 29°47' W 092°13'1 1.7
2017-Aug-23 16:31N 29°47' W 092°12'1 1.9
2017-Aug-23 16:01N 29°47' W 092°11'0 0.9
2017-Aug-23 15:31N 29°47' W 092°11'0 0.1
2017-Aug-23 15:01N 29°47' W 092°11'3 3.0
2017-Aug-23 14:01N 29°47' W 092°07'2 3.9
2017-Aug-23 13:31N 29°48' W 092°05'69 3.5
2017-Aug-22 17:55N 29°32' W 090°48'2 4.3
2017-Aug-22 17:31N 29°32' W 090°46'2 3.5
2017-Aug-22 17:01N 29°34' W 090°45'2 3.7
2017-Aug-22 16:31N 29°35' W 090°43'1 2.2
2017-Aug-22 16:01N 29°36' W 090°43'1 2.7
2017-Aug-22 15:30N 29°37' W 090°42'0 0.8
2017-Aug-22 15:00N 29°37' W 090°42'0 0.0
2017-Aug-22 14:31N 29°37' W 090°42'1 2.4
2017-Aug-22 14:00N 29°36' W 090°41'0 0.1
2017-Aug-22 13:30N 29°36' W 090°40'0 0.0
2017-Aug-22 13:00N 29°36' W 090°40'0 0.0
2017-Aug-22 12:30N 29°36' W 090°40'0 0.5
2017-Aug-22 12:00N 29°36' W 090°40'2 3.8
2017-Aug-22 11:30N 29°35' W 090°38'1 2.7
2017-Aug-22 11:00N 29°35' W 090°37'2 4.1
2017-Aug-22 10:29N 29°34' W 090°34'2 4.1
2017-Aug-22 09:58N 29°34' W 090°32'2 4.2
2017-Aug-22 09:28N 29°34' W 090°30'  
2017-Aug-17 05:44N 29°34' W 090°29'1 4.9
2017-Aug-17 05:27N 29°34' W 090°31'2 4.6
2017-Aug-17 05:00N 29°34' W 090°33'2 3.7
2017-Aug-17 04:25N 29°35' W 090°35'2 4.1
2017-Aug-17 04:01N 29°35' W 090°37'1 1.3
2017-Aug-17 03:31N 29°35' W 090°38'1 1.8
2017-Aug-17 02:54N 29°36' W 090°39'2 3.8
2017-Aug-17 02:30N 29°36' W 090°41'2 3.5
2017-Aug-17 02:01N 29°36' W 090°43'2 3.8
2017-Aug-17 01:31N 29°35' W 090°43'1 2.3
2017-Aug-17 01:01N 29°34' W 090°43'0 0.0
2017-Aug-17 00:31N 29°34' W 090°43'0 0.2
2017-Aug-17 00:01N 29°34' W 090°43'0 0.1
2017-Aug-16 23:31N 29°34' W 090°43'0 0.2
2017-Aug-16 23:01N 29°34' W 090°43'0 0.1
2017-Aug-16 22:30N 29°34' W 090°43'0 0.1
2017-Aug-16 22:01N 29°34' W 090°43'0 0.1
2017-Aug-16 21:31N 29°34' W 090°43'0 0.0
2017-Aug-16 21:01N 29°34' W 090°43'0 0.0
2017-Aug-16 20:31N 29°34' W 090°43'0 0.1
2017-Aug-16 20:01N 29°34' W 090°43'0 0.3
2017-Aug-16 19:31N 29°34' W 090°43'0 0.2
2017-Aug-16 19:01N 29°34' W 090°43'0 0.0
2017-Aug-16 18:31N 29°34' W 090°43'0 0.0
2017-Aug-16 18:00N 29°34' W 090°43'0 0.0
2017-Aug-16 17:30N 29°34' W 090°43'0 0.0
2017-Aug-16 17:00N 29°34' W 090°43'0 0.0
2017-Aug-16 16:30N 29°34' W 090°43'0 0.0
2017-Aug-16 16:00N 29°34' W 090°43'0 0.0
2017-Aug-16 15:30N 29°34' W 090°43'0 0.0
2017-Aug-16 14:27N 29°34' W 090°43'0 0.0
2017-Aug-16 14:00N 29°34' W 090°43'0 0.0
2017-Aug-16 13:30N 29°34' W 090°43'0 0.0
2017-Aug-16 13:00N 29°34' W 090°43'0 0.0
2017-Aug-16 12:22N 29°34' W 090°43'0 0.0
2017-Aug-16 12:00N 29°34' W 090°43'0 0.0
2017-Aug-16 11:30N 29°34' W 090°43'0 0.0
2017-Aug-16 11:00N 29°34' W 090°43'0 0.0
2017-Aug-16 10:30N 29°34' W 090°43'0 0.1
2017-Aug-16 10:00N 29°34' W 090°43'0 0.1
2017-Aug-16 09:30N 29°34' W 090°43'0 0.3
2017-Aug-16 09:00N 29°34' W 090°43'0 0.2
2017-Aug-16 08:30N 29°34' W 090°43'0 0.6
2017-Aug-16 08:00N 29°33' W 090°43'1 2.2
2017-Aug-16 07:30N 29°34' W 090°44'2 3.6
2017-Aug-16 07:00N 29°33' W 090°45'0 0.0
2017-Aug-16 06:30N 29°33' W 090°45'0 0.0
2017-Aug-16 06:00N 29°33' W 090°45'0 0.1
2017-Aug-16 05:30N 29°33' W 090°45'0 0.1
2017-Aug-16 05:00N 29°33' W 090°45'2 3.2
2017-Aug-16 04:30N 29°32' W 090°47'66 4.1
2017-Aug-15 12:27N 29°50' W 091°60'3 6.5
2017-Aug-15 12:00N 29°49' W 092°03'3 6.5
2017-Aug-15 11:30N 29°48' W 092°06'3 6.3
2017-Aug-15 11:00N 29°47' W 092°10'2 4.5
2017-Aug-15 10:30N 29°47' W 092°12'1 2.3
2017-Aug-15 10:00N 29°48' W 092°14'3 5.3
2017-Aug-15 09:23N 29°49' W 092°17'2 4.0
2017-Aug-15 09:00N 29°50' W 092°18'43 5.1
2017-Aug-15 00:42N 29°56' W 093°07'2 6.1
2017-Aug-15 00:19N 29°56' W 093°09'2 6.0
2017-Aug-15 00:00N 29°58' W 093°11'3 5.9
2017-Aug-14 23:30N 29°60' W 093°13'3 5.4
2017-Aug-14 23:00N 30°02' W 093°15'0 0.2
2017-Aug-14 22:30N 30°02' W 093°15'0 0.4
2017-Aug-14 22:00N 30°02' W 093°15'0 0.0
2017-Aug-14 21:30N 30°02' W 093°15'0 0.0
2017-Aug-14 21:00N 30°02' W 093°15'0 0.1
2017-Aug-14 20:30N 30°02' W 093°15'0 0.3
2017-Aug-14 20:00N 30°02' W 093°15'0 0.1
2017-Aug-14 19:30N 30°02' W 093°15'0 0.1
2017-Aug-14 19:00N 30°02' W 093°15'2 3.4
2017-Aug-14 18:30N 30°03' W 093°16'2 4.9
2017-Aug-14 18:00N 30°05' W 093°17'1 2.6
2017-Aug-14 17:30N 30°06' W 093°18'0 0.1
2017-Aug-14 17:00N 30°06' W 093°18'0 0.0
2017-Aug-14 16:30N 30°06' W 093°18'0 0.1
2017-Aug-14 16:00N 30°06' W 093°18'0 0.9
2017-Aug-14 15:30N 30°06' W 093°19'3 5.1
2017-Aug-14 15:00N 30°04' W 093°21'2 4.2
2017-Aug-14 14:30N 30°04' W 093°23'2 4.5
2017-Aug-14 14:00N 30°04' W 093°26'2 4.6
2017-Aug-14 13:30N 30°04' W 093°28'  

Dump ship's entire track history